Flight Track Log - Related Links

Times and Time Zones

All times are in EDT time to prevent confusion due to time zone crossing. See the FDX1570 flight status page for this flight to view local times or setup timezone preferences in your user account.

Time Position Orientation Groundspeed Altitude Reporting Facility
EDT Latitude Longitude Course Direction KTS MPH feet Rate Location/Type
Thu 04:31:59 AM 35.0167 -89.9667 165° South 170 196 1,500  Level KMEM
Thu 04:32:59 AM 34.9667 -89.9500 165° South 222 255 3,400 2,619 Climbing KMEM
Thu 04:34:05 AM 34.9167 -89.8833 132° Southeast 289 333 7,000 2,780 Climbing KMEM
Thu 04:35:56 AM 34.9911 -89.7133 62° Northeast 357 411 11,600 2,211 Climbing Memphis Center
Thu 04:36:56 AM 35.0364 -89.6014 64° Northeast 363 418 13,300 2,400 Climbing Memphis Center
Thu 04:37:56 AM 35.0897 -89.4817 61° Northeast 385 443 16,400 2,750 Climbing Memphis Center
Thu 04:38:56 AM 35.1450 -89.3564 62° Northeast 404 465 18,800 2,100 Climbing Memphis Center
Thu 04:39:56 AM 35.1964 -89.2392 62° Northeast 424 488 20,600 1,950 Climbing Memphis Center
Thu 04:40:56 AM 35.2597 -89.1008 61° Northeast 444 511 22,700 2,050 Climbing Memphis Center
Thu 04:41:56 AM 35.3292 -88.9650 58° Northeast 461 531 24,700 1,912 Climbing Memphis Center
Thu 04:47:47 AM 35.8020 -88.1680 58° Northeast 468 539 35,800 1,818 Climbing FlightAware ADS-B
Thu 04:48:32 AM 35.8600 -88.0710 54° Northeast 469 540 36,700 847 Climbing FlightAware ADS-B
Thu 04:49:12 AM 35.9120 -87.9830 54° Northeast 463 533 37,000 212 Climbing FlightAware ADS-B
Thu 04:49:57 AM 35.9680 -87.8900 53° Northeast 464 534 37,000  Level FlightAware ADS-B
Thu 04:50:37 AM 36.0180 -87.8060 54° Northeast 467 537 37,000  Level FlightAware ADS-B
Thu 04:51:22 AM 36.0780 -87.7050 54° Northeast 467 537 37,000  Level FlightAware ADS-B
Thu 04:52:02 AM 36.1290 -87.6180 54° Northeast 468 539 37,000  Level FlightAware ADS-B
Thu 04:52:42 AM 36.1800 -87.5320 54° Northeast 469 540 37,000  Level FlightAware ADS-B
Thu 04:53:27 AM 36.2350 -87.4380 54° Northeast 469 540 37,000  Level FlightAware ADS-B
Thu 04:54:07 AM 36.2860 -87.3510 54° Northeast 467 537 37,000  Level FlightAware ADS-B
Thu 04:54:52 AM 36.3450 -87.2500 54° Northeast 467 537 37,000  Level FlightAware ADS-B
Thu 04:55:32 AM 36.3960 -87.1650 53° Northeast 467 537 37,000  Level FlightAware ADS-B
Thu 04:56:12 AM 36.4460 -87.0780 54° Northeast 467 537 37,000  Level FlightAware ADS-B
Thu 04:56:57 AM 36.5020 -86.9800 55° Northeast 467 537 37,000  Level FlightAware ADS-B
Thu 04:57:37 AM 36.5530 -86.8930 54° Northeast 465 535 37,000  Level FlightAware ADS-B
Thu 04:58:17 AM 36.6020 -86.8080 54° Northeast 464 534 37,000  Level FlightAware ADS-B
Thu 04:58:58 AM 36.6561 -86.7146 54° Northeast 465 535 37,000  Level FlightAware ADS-B
Thu 04:59:30 AM 36.6969 -86.6428 55° Northeast 464 534 37,000  Level FlightAware ADS-B
Thu 05:00:01 AM 36.7352 -86.5755 55° Northeast 463 533 37,000  Level FlightAware ADS-B
Thu 05:00:32 AM 36.7735 -86.5084 55° Northeast 461 531 37,000  Level FlightAware ADS-B
Thu 05:01:02 AM 36.8106 -86.4433 55° Northeast 462 532 37,000  Level FlightAware ADS-B
Thu 05:01:38 AM 36.8556 -86.3650 54° Northeast 462 532 37,000  Level FlightAware ADS-B
Thu 05:02:19 AM 36.9054 -86.2779 54° Northeast 463 533 37,000  Level FlightAware ADS-B
Thu 05:02:53 AM 36.9473 -86.2037 55° Northeast 463 533 37,000  Level FlightAware ADS-B
Thu 05:03:57 AM 37.0260 -86.0640 55° Northeast 463 533 37,000  Level FlightAware ADS-B
Thu 05:04:37 AM 37.0750 -85.9780 54° Northeast 465 535 37,000  Level FlightAware ADS-B
Thu 05:05:22 AM 37.1300 -85.8780 55° Northeast 467 537 37,000  Level FlightAware ADS-B
Thu 05:05:52 AM 37.1630 -85.8210 54° Northeast 467 537 37,000  Level FlightAware ADS-B
Thu 05:06:42 AM 37.2280 -85.7030 55° Northeast 467 537 37,000  Level FlightAware ADS-B
Thu 05:07:27 AM 37.2840 -85.6030 55° Northeast 467 537 37,000  Level FlightAware ADS-B
Thu 05:08:02 AM 37.3250 -85.5290 55° Northeast 468 539 37,000  Level FlightAware ADS-B
Thu 05:08:47 AM 37.3840 -85.4220 55° Northeast 467 537 37,000  Level FlightAware ADS-B
Thu 05:09:11 AM 37.4160 -85.3643 55° Northeast 469 540 37,000  Level FlightAware ADS-B
Thu 05:09:42 AM 37.4542 -85.2946 55° Northeast 469 540 37,000  Level FlightAware ADS-B
Thu 05:10:13 AM 37.4921 -85.2273 55° Northeast 470 541 37,000  Level FlightAware ADS-B
Thu 05:10:43 AM 37.5294 -85.1574 56° Northeast 472 543 37,000  Level FlightAware ADS-B
Thu 05:11:13 AM 37.5673 -85.0894 55° Northeast 473 544 37,000  Level FlightAware ADS-B
Thu 05:11:43 AM 37.6047 -85.0212 55° Northeast 474 545 37,000  Level FlightAware ADS-B
Thu 05:12:22 AM 37.6500 -84.9390 55° Northeast 474 545 37,000  Level FlightAware ADS-B
Thu 05:12:32 AM 37.6652 -84.9095 57° Northeast 475 547 37,000  Level FlightAware ADS-B
Thu 05:13:42 AM 37.7500 -84.7540 55° Northeast 477 549 37,000  Level FlightAware ADS-B
Thu 05:14:27 AM 37.8070 -84.6480 56° Northeast 476 548 37,000  Level FlightAware ADS-B
Thu 05:15:02 AM 37.8490 -84.5720 55° Northeast 476 548 37,000  Level FlightAware ADS-B
Thu 05:15:52 AM 37.9100 -84.4570 56° Northeast 475 547 37,000  Level FlightAware ADS-B
Thu 05:16:32 AM 37.9600 -84.3640 56° Northeast 476 548 37,000  Level FlightAware ADS-B
Thu 05:17:12 AM 38.0090 -84.2720 56° Northeast 476 548 37,000  Level FlightAware ADS-B
Thu 05:17:57 AM 38.0670 -84.1630 56° Northeast 477 549 37,000  Level FlightAware ADS-B
Thu 05:18:52 AM 38.1280 -84.0480 56° Northeast 477 549 37,000  Level FlightAware ADS-B
Thu 05:19:32 AM 38.1810 -83.9470 56° Northeast 475 547 37,000  Level FlightAware ADS-B
Thu 05:20:17 AM 38.2320 -83.8520 56° Northeast 474 545 37,000  Level FlightAware ADS-B
Thu 05:20:57 AM 38.2740 -83.7730 56° Northeast 474 545 37,000  Level FlightAware ADS-B
Thu 05:21:37 AM 38.3150 -83.6940 57° Northeast 474 545 37,000  Level FlightAware ADS-B
Thu 05:22:17 AM 38.3570 -83.6150 56° Northeast 474 545 37,000  Level FlightAware ADS-B
Thu 05:23:07 AM 38.4090 -83.5170 56° Northeast 474 545 37,000  Level FlightAware ADS-B
Thu 05:23:47 AM 38.4510 -83.4380 56° Northeast 474 545 37,000  Level FlightAware ADS-B
Thu 05:24:27 AM 38.4920 -83.3590 56° Northeast 474 545 37,000  Level FlightAware ADS-B
Thu 05:25:07 AM 38.5340 -83.2800 56° Northeast 474 545 37,000  Level FlightAware ADS-B
Thu 05:25:47 AM 38.5760 -83.2010 56° Northeast 474 545 37,000  Level FlightAware ADS-B
Thu 05:26:37 AM 38.7000 -82.9490 58° Northeast 475 547 37,000  Level FlightAware ADS-B
Thu 05:27:17 AM 38.7460 -82.8600 56° Northeast 477 549 37,000  Level FlightAware ADS-B
Thu 05:28:02 AM 38.8020 -82.7480 57° Northeast 479 551 37,000  Level FlightAware ADS-B
Thu 05:28:37 AM 38.8400 -82.6720 57° Northeast 480 552 37,000  Level FlightAware ADS-B
Thu 05:29:17 AM 38.8910 -82.5740 56° Northeast 482 555 37,000  Level FlightAware ADS-B
Thu 05:30:02 AM 38.9460 -82.4630 57° Northeast 484 557 37,000  Level FlightAware ADS-B
Thu 05:30:47 AM 39.0000 -82.3570 57° Northeast 484 557 37,000  Level FlightAware ADS-B
Thu 05:31:32 AM 39.0560 -82.2450 57° Northeast 485 558 37,000  Level FlightAware ADS-B
Thu 05:32:12 AM 39.1050 -82.1460 57° Northeast 482 555 37,000  Level FlightAware ADS-B
Thu 05:32:52 AM 39.1530 -82.0490 57° Northeast 482 555 37,000  Level FlightAware ADS-B
Thu 05:33:32 AM 39.2010 -81.9550 57° Northeast 482 555 37,000  Level FlightAware ADS-B
Thu 05:34:17 AM 39.2530 -81.8480 58° Northeast 483 556 37,000  Level FlightAware ADS-B
Thu 05:34:57 AM 39.3000 -81.7530 57° Northeast 484 557 37,000  Level FlightAware ADS-B
Thu 05:35:42 AM 39.3570 -81.6380 57° Northeast 485 558 37,000  Level FlightAware ADS-B
Thu 05:36:27 AM 39.4100 -81.5280 58° Northeast 486 559 37,000  Level FlightAware ADS-B
Thu 05:37:02 AM 39.4530 -81.4420 57° Northeast 486 559 37,000  Level FlightAware ADS-B
Thu 05:37:47 AM 39.5060 -81.3330 58° Northeast 485 558 37,000  Level FlightAware ADS-B
Thu 05:38:32 AM 39.5600 -81.2200 58° Northeast 483 556 37,000  Level FlightAware ADS-B
Thu 05:39:12 AM 39.6080 -81.1200 58° Northeast 479 551 37,000  Level FlightAware ADS-B
Thu 05:39:57 AM 39.6610 -81.0110 58° Northeast 477 549 37,000  Level FlightAware ADS-B
Thu 05:40:37 AM 39.7060 -80.9190 58° Northeast 475 547 37,000  Level FlightAware ADS-B
Thu 05:41:17 AM 39.7520 -80.8220 58° Northeast 475 547 37,000  Level FlightAware ADS-B
Thu 05:42:02 AM 39.8060 -80.7100 58° Northeast 475 547 37,000  Level FlightAware ADS-B
Thu 05:42:42 AM 39.8500 -80.6160 59° Northeast 471 542 37,000  Level FlightAware ADS-B
Thu 05:43:22 AM 39.8970 -80.5170 58° Northeast 469 540 37,000  Level FlightAware ADS-B
Thu 05:43:52 AM 39.9310 -80.4450 58° Northeast 468 539 37,000  Level FlightAware ADS-B
Thu 05:44:37 AM 39.9800 -80.3420 58° Northeast 467 537 37,000  Level FlightAware ADS-B
Thu 05:45:17 AM 40.0270 -80.2430 58° Northeast 468 539 37,000  Level FlightAware ADS-B
Thu 05:45:57 AM 40.0690 -80.1510 59° Northeast 468 539 37,000  Level FlightAware ADS-B
Thu 05:46:42 AM 40.1230 -80.0360 58° Northeast 468 539 37,000  Level FlightAware ADS-B
Thu 05:47:22 AM 40.1690 -79.9390 58° Northeast 469 540 37,000  Level FlightAware ADS-B
Thu 05:48:02 AM 40.2150 -79.8390 59° Northeast 470 541 37,000  Level FlightAware ADS-B
Thu 05:48:47 AM 40.2640 -79.7320 59° Northeast 472 543 37,000  Level FlightAware ADS-B
Thu 05:49:27 AM 40.3080 -79.6360 59° Northeast 475 547 37,000  Level FlightAware ADS-B
Thu 05:49:57 AM 40.3420 -79.5620 59° Northeast 476 548 37,000  Level FlightAware ADS-B
Thu 05:50:37 AM 40.3890 -79.4630 58° Northeast 476 548 37,000  Level FlightAware ADS-B
Thu 05:51:17 AM 40.4340 -79.3640 59° Northeast 476 548 37,000  Level FlightAware ADS-B
Thu 05:51:57 AM 40.4770 -79.2690 59° Northeast 474 545 37,000  Level FlightAware ADS-B
Thu 05:52:42 AM 40.5280 -79.1550 59° Northeast 475 547 37,000  Level FlightAware ADS-B
Thu 05:53:22 AM 40.5720 -79.0590 59° Northeast 476 548 37,000  Level FlightAware ADS-B
Thu 05:54:02 AM 40.6170 -78.9560 60° Northeast 476 548 37,000  Level FlightAware ADS-B
Thu 05:54:37 AM 40.6550 -78.8740 59° Northeast 476 548 37,000  Level FlightAware ADS-B
Thu 05:55:27 AM 40.7090 -78.7550 59° Northeast 477 549 37,000  Level FlightAware ADS-B
Thu 05:56:12 AM 40.7590 -78.6420 60° Northeast 477 549 37,000  Level FlightAware ADS-B
Thu 05:56:52 AM 40.8030 -78.5440 59° Northeast 479 551 37,000  Level FlightAware ADS-B
Thu 05:57:32 AM 40.8460 -78.4450 60° Northeast 481 554 37,000  Level FlightAware ADS-B
Thu 05:58:17 AM 40.8980 -78.3280 60° Northeast 483 556 37,000  Level FlightAware ADS-B
Thu 05:58:57 AM 40.9430 -78.2260 60° Northeast 484 557 37,000  Level FlightAware ADS-B
Thu 05:59:42 AM 40.9940 -78.1080 60° Northeast 485 558 37,000  Level FlightAware ADS-B
Thu 06:00:22 AM 41.0390 -78.0050 60° Northeast 484 557 37,000  Level FlightAware ADS-B
Thu 06:01:02 AM 41.0860 -77.9080 57° Northeast 482 555 37,000 -494 Level FlightAware ADS-B
Thu 06:01:47 AM 41.1420 -77.8000 55° Northeast 483 556 36,300 -847 Descending FlightAware ADS-B
Thu 06:02:27 AM 41.1960 -77.7000 54° Northeast 476 548 35,800 -776 Descending FlightAware ADS-B
Thu 06:03:12 AM 41.2530 -77.5940 54° Northeast 470 541 35,200 -918 Descending FlightAware ADS-B
Thu 06:03:52 AM 41.3010 -77.5070 54° Northeast 471 542 34,500 -1,050 Descending FlightAware ADS-B
Thu 06:04:32 AM 41.3550 -77.4050 55° Northeast 471 542 33,800 -1,059 Descending FlightAware ADS-B
Thu 06:05:17 AM 41.4120 -77.2990 54° Northeast 472 543 33,000 -1,059 Descending FlightAware ADS-B
Thu 06:05:57 AM 41.4580 -77.2110 55° Northeast 474 545 32,300 -918 Descending FlightAware ADS-B
Thu 06:06:42 AM 41.5160 -77.0990 55° Northeast 466 536 31,700 -1,059 Descending FlightAware ADS-B
Thu 06:07:22 AM 41.5680 -77.0020 54° Northeast 469 540 30,800 -1,271 Descending FlightAware ADS-B
Thu 06:08:07 AM 41.6250 -76.8930 55° Northeast 469 540 29,900 -1,200 Descending FlightAware ADS-B
Thu 06:08:47 AM 41.6740 -76.7980 55° Northeast 468 539 29,100 -975 Descending FlightAware ADS-B
Thu 06:09:27 AM 41.7230 -76.7070 54° Northeast 473 544 28,600 -918 Descending FlightAware ADS-B
Thu 06:10:12 AM 41.7790 -76.5960 56° Northeast 473 544 27,800 -1,059 Descending FlightAware ADS-B
Thu 06:10:52 AM 41.8300 -76.4980 55° Northeast 471 542 27,100 -1,350 Descending FlightAware ADS-B
Thu 06:11:32 AM 41.8790 -76.4030 55° Northeast 478 550 26,000 -1,765 Descending FlightAware ADS-B
Thu 06:12:17 AM 41.9360 -76.2930 55° Northeast 473 544 24,600 -1,412 Descending FlightAware ADS-B
Thu 06:12:57 AM 41.9860 -76.1960 55° Northeast 454 522 24,000 -424 Descending FlightAware ADS-B
Thu 06:13:42 AM 42.0360 -76.0980 55° Northeast 451 519 24,000  Level FlightAware ADS-B
Thu 06:14:17 AM 42.0740 -76.0230 56° Northeast 451 519 24,000  Level FlightAware ADS-B
Thu 06:14:57 AM 42.1150 -75.9440 55° Northeast 451 519 24,000  Level FlightAware ADS-B
Thu 06:15:47 AM 42.1660 -75.8460 55° Northeast 451 519 24,000  Level FlightAware ADS-B
Thu 06:16:27 AM 42.2060 -75.7680 55° Northeast 451 519 24,000  Level FlightAware ADS-B
Thu 06:17:07 AM 42.2470 -75.6900 55° Northeast 451 519 24,000  Level FlightAware ADS-B
Thu 06:17:37 AM 42.2980 -75.5090 69° East 451 519 24,000  Level FlightAware ADS-B
Thu 06:18:17 AM 42.3220 -75.4130 71° East 452 520 24,000  Level FlightAware ADS-B
Thu 06:18:57 AM 42.3450 -75.3220 71° East 452 520 24,000  Level FlightAware ADS-B
Thu 06:19:37 AM 42.3680 -75.2310 71° East 452 520 24,000  Level FlightAware ADS-B
Thu 06:20:27 AM 42.3970 -75.1180 71° East 452 520 24,000  Level FlightAware ADS-B
Thu 06:21:07 AM 42.4210 -75.0270 70° East 452 520 24,000  Level FlightAware ADS-B
Thu 06:21:47 AM 42.4440 -74.9360 71° East 452 520 24,000 -10,286 Level FlightAware ADS-B
Thu 06:22:03 AM 42.4769 -74.8497 71° East 429 494 14,400 -10,167 Descending Boston Center
Thu 06:22:59 AM 42.5153 -74.7047 70° East 387 445 11,800 -2,163 Descending Boston Center
Thu 06:23:29 AM 42.5292 -74.6433 73° East 374 430 11,300 -656 Descending Boston Center
Thu 06:24:03 AM 42.5450 -74.5819 71° East 362 417 11,100 -295 Descending Boston Center
Thu 06:24:30 AM 42.5647 -74.5206 66° East 304 350 11,000 -700 Descending Boston Center
Thu 06:25:03 AM 42.5700 -74.4672 82° East 305 351 10,400 -1,300 Descending Boston Center
Thu 06:25:30 AM 42.5686 -74.4192 92° East 268 308 9,700 -1,300 Descending Boston Center
Thu 06:26:03 AM 42.5694 -74.3714 89° East 282 325 9,100 -1,377 Descending Boston Center
Thu 06:26:31 AM 42.5664 -74.3119 94° East 277 319 8,300 -1,500 Descending Boston Center
Thu 06:27:03 AM 42.5650 -74.2556 92° East 275 316 7,600 -1,279 Descending Boston Center
Thu 06:27:32 AM 42.5658 -74.2078 89° East 279 321 7,000 -1,200 Descending Boston Center
Thu 06:28:03 AM 42.5644 -74.1625 92° East 275 316 6,400 -1,200 Descending Boston Center
Thu 06:28:32 AM 42.5633 -74.1061 92° East 273 314 5,800 -1,200 Descending Boston Center
Thu 06:29:03 AM 42.5619 -74.0497 92° East 275 316 5,200 -1,180 Descending Boston Center
Thu 06:29:33 AM 42.5606 -74.0044 92° East 268 308 4,600 -1,000 Descending Boston Center
Thu 06:30:03 AM 42.5633 -73.9594 85° East 270 311 4,200 -1,100 Descending Boston Center
Thu 06:30:33 AM 42.5825 -73.9147 60° Northeast 266 306 3,500 -1,300 Descending Boston Center
Thu 06:31:03 AM 42.6061 -73.8758 50° Northeast 242 278 2,900 -787 Descending Boston Center
Thu 06:31:34 AM 42.6253 -73.8397 54° Northeast 215 247 2,700 -500 Descending Boston Center
Thu 06:32:03 AM 42.6442 -73.8147 44° Northeast 230 265 2,400 -984 Descending Boston Center
Thu 06:32:35 AM 42.6672 -73.8039 19° North 180 207 1,700 -978 Descending Boston Center
Thu 06:33:35 AM 42.7069 -73.8047 359° North 130 150 900 -800 Descending Boston Center

Login

Don't have an account? Register now (free) for customized features, flight alerts, and more!